Time;durP1;ratioP1;P1;durP2;ratioP2;P2;SDS_P1;SDS_P2;PMS_P1;PMS_P2;Temp;Humidity;BMP_temperature;BMP_pressure;BME280_temperature;BME280_humidity;BME280_pressure;Samples;Min_cycle;Max_cycle;Signal;HPM_P1;HPM_P2
2021/12/29 00:01:05;;;;;;;1.13;0.85;;;10.00;99.90;;;;;;5077487;28;20164;-56
2021/12/29 00:03:32;;;;;;;2.13;1.27;;;9.90;99.90;;;;;;5077579;28;20058;-57
2021/12/29 00:06:00;;;;;;;2.35;1.40;;;9.90;99.90;;;;;;5078881;28;20474;-56
2021/12/29 00:08:27;;;;;;;1.85;1.10;;;9.90;99.90;;;;;;5077555;28;20094;-57
2021/12/29 00:10:55;;;;;;;1.30;1.05;;;9.90;99.90;;;;;;5075518;28;20052;-58
2021/12/29 00:13:25;;;;;;;1.77;1.27;;;9.90;99.90;;;;;;5072499;28;20127;-56
2021/12/29 00:15:57;;;;;;;1.92;1.05;;;9.80;99.90;;;;;;5077198;28;20091;-58
2021/12/29 00:18:31;;;;;;;1.92;1.05;;;9.80;99.90;;;;;;5074802;28;20048;-57
2021/12/29 00:20:58;;;;;;;1.85;1.40;;;9.70;99.90;;;;;;5076013;28;20055;-58
2021/12/29 00:23:25;;;;;;;2.10;1.20;;;9.70;99.90;;;;;;5073441;28;20036;-57
2021/12/29 00:25:52;;;;;;;2.05;0.88;;;9.60;99.90;;;;;;5076763;28;20080;-55
2021/12/29 00:28:19;;;;;;;2.63;1.42;;;9.60;99.90;;;;;;5075875;28;20375;-55
2021/12/29 00:30:45;;;;;;;2.15;1.25;;;9.50;99.90;;;;;;5074171;28;20157;-55
2021/12/29 00:33:12;;;;;;;3.83;1.80;;;9.50;99.90;;;;;;5076894;28;20449;-58
2021/12/29 00:35:41;;;;;;;2.08;1.20;;;9.40;99.90;;;;;;5076610;28;20173;-56
2021/12/29 00:38:10;;;;;;;1.65;1.13;;;9.30;99.90;;;;;;5079332;28;20130;-56
2021/12/29 00:40:37;;;;;;;1.40;1.10;;;9.30;99.90;;;;;;5079241;28;20123;-58
2021/12/29 00:43:05;;;;;;;3.30;1.17;;;9.30;99.90;;;;;;5079419;28;20521;-58
2021/12/29 00:45:36;;;;;;;1.75;1.00;;;9.30;99.90;;;;;;5077439;28;20449;-57
2021/12/29 00:48:04;;;;;;;1.70;1.13;;;9.30;99.90;;;;;;5080623;28;20274;-55
2021/12/29 00:50:33;;;;;;;2.13;1.20;;;9.40;99.90;;;;;;5078629;28;20151;-57
2021/12/29 00:53:00;;;;;;;1.50;1.20;;;9.40;99.90;;;;;;5078581;28;20044;-56
2021/12/29 00:55:27;;;;;;;4.00;0.90;;;9.40;99.90;;;;;;5078096;28;20964;-54
2021/12/29 00:57:53;;;;;;;1.65;1.00;;;9.40;99.90;;;;;;5079419;28;20087;-56
2021/12/29 01:00:22;;;;;;;1.73;1.15;;;9.40;99.90;;;;;;5079091;28;20112;-56
2021/12/29 01:02:48;;;;;;;2.33;1.10;;;9.40;99.90;;;;;;5078236;28;20091;-58
2021/12/29 01:05:16;;;;;;;1.60;1.05;;;9.40;99.90;;;;;;5079721;28;20059;-56
2021/12/29 01:07:44;;;;;;;1.65;1.00;;;9.30;99.90;;;;;;5078277;28;20048;-58
2021/12/29 01:10:12;;;;;;;1.02;0.90;;;9.30;99.90;;;;;;5078009;28;20044;-58
2021/12/29 01:12:46;;;;;;;1.20;1.10;;;9.30;99.90;;;;;;5078906;28;20127;-57
2021/12/29 01:15:17;;;;;;;1.65;1.05;;;9.30;99.90;;;;;;5076119;28;20048;-58
2021/12/29 01:17:43;;;;;;;3.13;1.15;;;9.20;99.90;;;;;;5079022;28;20089;-57
2021/12/29 01:20:10;;;;;;;1.38;0.90;;;9.30;99.90;;;;;;5079255;28;20132;-58
2021/12/29 01:22:37;;;;;;;1.80;1.17;;;9.20;99.90;;;;;;5079812;28;20140;-58
2021/12/29 01:25:04;;;;;;;1.00;0.90;;;9.20;99.90;;;;;;5079207;28;20135;-56
2021/12/29 01:27:31;;;;;;;1.65;1.20;;;9.10;99.90;;;;;;5078829;28;20117;-58
2021/12/29 01:29:58;;;;;;;1.67;0.95;;;9.10;99.90;;;;;;5068664;28;20880;-56
2021/12/29 01:32:25;;;;;;;2.30;1.20;;;9.10;99.90;;;;;;5078094;28;20048;-54
2021/12/29 01:34:52;;;;;;;1.80;1.33;;;9.10;99.90;;;;;;5077390;28;20143;-57
2021/12/29 01:37:18;;;;;;;1.67;1.13;;;9.00;99.90;;;;;;5077606;28;20060;-56
2021/12/29 01:39:45;;;;;;;1.33;1.08;;;9.00;99.90;;;;;;5077602;28;20304;-58
2021/12/29 01:42:12;;;;;;;1.67;1.00;;;9.00;99.90;;;;;;5077306;28;20209;-58
2021/12/29 01:44:39;;;;;;;1.48;1.10;;;9.00;99.90;;;;;;5076961;28;20139;-58
2021/12/29 01:47:06;;;;;;;4.43;1.23;;;9.00;99.90;;;;;;5077824;28;20127;-58
2021/12/29 01:49:33;;;;;;;1.95;1.27;;;9.00;99.90;;;;;;5069904;28;20491;-57
2021/12/29 01:52:10;;;;;;;1.77;1.35;;;9.00;99.90;;;;;;5079632;28;20238;-58
2021/12/29 01:54:36;;;;;;;2.70;1.30;;;9.00;99.90;;;;;;5077605;28;20558;-58
2021/12/29 01:57:05;;;;;;;1.35;0.90;;;8.90;99.90;;;;;;5082116;28;20051;-57
2021/12/29 01:59:33;;;;;;;2.03;1.00;;;8.90;99.90;;;;;;5077165;28;20561;-57
2021/12/29 02:02:00;;;;;;;1.85;1.00;;;8.90;99.90;;;;;;5081383;28;20088;-58
2021/12/29 02:04:27;;;;;;;2.55;1.45;;;8.90;99.90;;;;;;5080741;28;20059;-56
2021/12/29 02:06:53;;;;;;;1.48;1.00;;;8.90;99.90;;;;;;5081457;28;20043;-58
2021/12/29 02:09:20;;;;;;;2.17;1.10;;;8.90;99.90;;;;;;5080602;28;20092;-55
2021/12/29 02:11:48;;;;;;;1.27;1.00;;;8.90;99.90;;;;;;5080982;28;20044;-54
2021/12/29 02:14:15;;;;;;;1.05;0.88;;;9.00;99.90;;;;;;5062076;28;20044;-56
2021/12/29 02:16:41;;;;;;;2.78;1.10;;;9.00;99.90;;;;;;5080470;28;20273;-57
2021/12/29 02:19:10;;;;;;;1.30;0.90;;;9.00;99.90;;;;;;5081528;28;20083;-56
2021/12/29 02:21:37;;;;;;;3.00;1.45;;;9.00;99.90;;;;;;5081538;28;20151;-57
2021/12/29 02:26:38;;;;;;;1.75;1.00;;;9.00;99.90;;;;;;5081869;28;20040;-55
2021/12/29 02:29:07;;;;;;;2.13;1.10;;;9.00;99.90;;;;;;5080246;28;20076;-53
2021/12/29 02:31:34;;;;;;;1.17;1.00;;;9.00;99.90;;;;;;5077822;28;20059;-56
2021/12/29 02:34:01;;;;;;;1.38;1.00;;;9.00;99.90;;;;;;5084426;28;20094;-55
2021/12/29 02:36:28;;;;;;;1.90;1.30;;;9.00;99.90;;;;;;5085769;28;20044;-57
2021/12/29 02:38:56;;;;;;;2.40;1.35;;;9.00;99.90;;;;;;5085804;28;20147;-52
2021/12/29 02:41:24;;;;;;;1.77;1.02;;;9.00;99.90;;;;;;5084415;28;20098;-58
2021/12/29 02:43:58;;;;;;;1.40;0.93;;;8.90;99.90;;;;;;5084529;28;20409;-56
2021/12/29 02:46:26;;;;;;;2.03;0.80;;;8.90;99.90;;;;;;5085969;28;20090;-57
2021/12/29 02:48:58;;;;;;;1.67;1.02;;;8.90;99.90;;;;;;5084702;28;20249;-55
2021/12/29 02:51:26;;;;;;;1.85;1.02;;;8.90;99.90;;;;;;5085699;28;20056;-58
2021/12/29 02:53:52;;;;;;;1.10;1.00;;;8.90;99.90;;;;;;5085566;28;20516;-57
2021/12/29 02:56:19;;;;;;;1.23;0.93;;;8.90;99.90;;;;;;5084332;28;20044;-56
2021/12/29 02:58:46;;;;;;;1.70;1.00;;;8.90;99.90;;;;;;5084267;28;20067;-57
2021/12/29 03:01:14;;;;;;;1.35;1.00;;;8.90;99.90;;;;;;5085342;28;20519;-58
2021/12/29 03:03:41;;;;;;;1.73;1.15;;;8.80;99.90;;;;;;5085550;28;20135;-57
2021/12/29 03:06:08;;;;;;;3.13;1.25;;;8.80;99.90;;;;;;5085807;28;20127;-57
2021/12/29 03:08:35;;;;;;;2.17;1.17;;;8.80;99.90;;;;;;5084888;28;20112;-56
2021/12/29 03:11:03;;;;;;;1.30;1.00;;;8.70;99.90;;;;;;5084184;28;20093;-57
2021/12/29 03:13:31;;;;;;;1.33;1.00;;;8.70;99.90;;;;;;5083816;28;20450;-57
2021/12/29 03:15:58;;;;;;;1.23;0.95;;;8.70;99.90;;;;;;5084962;28;20126;-57
2021/12/29 03:18:25;;;;;;;1.75;1.08;;;8.70;99.90;;;;;;5084971;28;20125;-57
2021/12/29 03:20:52;;;;;;;1.52;0.80;;;8.70;99.90;;;;;;5083829;28;20086;-57
2021/12/29 03:23:19;;;;;;;1.20;0.98;;;8.70;99.90;;;;;;5084196;28;20623;-57
2021/12/29 03:25:48;;;;;;;2.15;1.50;;;8.70;99.90;;;;;;5084855;28;20091;-58
2021/12/29 03:28:16;;;;;;;1.73;1.10;;;8.80;99.90;;;;;;5082946;28;20048;-55
2021/12/29 03:30:46;;;;;;;1.17;1.08;;;8.80;99.90;;;;;;5083342;28;20103;-57
2021/12/29 03:33:13;;;;;;;2.00;0.95;;;8.80;99.90;;;;;;5084696;28;20119;-59
2021/12/29 03:35:49;;;;;;;1.65;1.05;;;8.90;99.90;;;;;;5084325;28;20098;-57
2021/12/29 03:38:26;;;;;;;1.33;0.82;;;8.90;99.90;;;;;;5078299;28;20087;-57
2021/12/29 03:40:53;;;;;;;1.30;0.90;;;8.90;99.90;;;;;;5083252;28;20436;-55
2021/12/29 03:43:20;;;;;;;1.55;0.90;;;9.00;99.90;;;;;;5083107;28;20123;-56
2021/12/29 03:45:48;;;;;;;1.20;1.00;;;9.00;99.90;;;;;;5082314;28;20056;-57
2021/12/29 03:48:15;;;;;;;1.58;0.90;;;9.00;99.90;;;;;;5084513;28;20079;-58
2021/12/29 03:50:42;;;;;;;1.75;1.20;;;9.00;99.90;;;;;;5083775;28;20048;-57
2021/12/29 03:53:10;;;;;;;1.63;0.80;;;9.10;99.90;;;;;;5081854;28;20472;-58
2021/12/29 03:55:36;;;;;;;1.02;0.77;;;9.10;99.90;;;;;;5083486;28;20527;-53
2021/12/29 03:58:03;;;;;;;1.52;0.90;;;9.10;99.90;;;;;;5083605;28;20040;-56
2021/12/29 04:00:30;;;;;;;2.28;1.25;;;9.10;99.90;;;;;;5082601;28;20056;-54
2021/12/29 04:02:57;;;;;;;0.70;0.60;;;9.20;99.90;;;;;;5084431;28;20606;-54
2021/12/29 04:05:24;;;;;;;1.20;1.00;;;9.20;99.90;;;;;;5084155;28;20115;-57
2021/12/29 04:07:53;;;;;;;0.93;0.80;;;9.30;99.90;;;;;;5083502;28;20436;-57
2021/12/29 04:10:20;;;;;;;1.25;1.00;;;9.20;99.90;;;;;;5083608;28;20135;-56
2021/12/29 04:12:46;;;;;;;2.13;1.00;;;9.30;99.90;;;;;;5083278;28;20123;-57
2021/12/29 04:15:15;;;;;;;1.60;0.90;;;9.30;99.90;;;;;;5083564;28;20652;-54
2021/12/29 04:17:41;;;;;;;1.30;1.02;;;9.40;99.90;;;;;;5082279;28;20448;-58
2021/12/29 04:23:06;;;;;;;0.80;0.68;;;9.40;99.90;;;;;;5082514;28;20048;-58
2021/12/29 04:25:38;;;;;;;1.98;0.88;;;9.50;99.90;;;;;;5083919;28;20193;-55
2021/12/29 04:28:13;;;;;;;1.23;1.08;;;9.50;99.90;;;;;;5084269;28;20454;-57
2021/12/29 04:30:40;;;;;;;1.33;0.88;;;9.50;99.90;;;;;;5082386;28;20091;-58
2021/12/29 04:33:07;;;;;;;1.38;0.75;;;9.50;99.90;;;;;;5085304;28;20086;-54
2021/12/29 04:35:34;;;;;;;0.85;0.70;;;9.50;99.90;;;;;;5084918;28;20067;-57
2021/12/29 04:38:01;;;;;;;1.00;0.75;;;9.50;99.90;;;;;;5086058;28;20439;-56
2021/12/29 04:40:28;;;;;;;0.65;0.65;;;9.50;99.90;;;;;;5084248;28;20156;-56
2021/12/29 04:42:54;;;;;;;1.08;0.80;;;9.50;99.90;;;;;;5084936;28;20438;-56
2021/12/29 04:45:25;;;;;;;1.25;0.80;;;9.60;99.90;;;;;;5084308;28;20150;-57
2021/12/29 04:47:52;;;;;;;1.20;0.80;;;9.60;99.90;;;;;;5084471;28;20044;-57
2021/12/29 04:50:37;;;;;;;2.13;1.02;;;9.60;99.90;;;;;;5084480;28;20109;-59
2021/12/29 04:53:05;;;;;;;0.85;0.80;;;9.60;99.90;;;;;;5085225;28;20489;-58
2021/12/29 04:55:32;;;;;;;3.40;1.67;;;9.60;99.90;;;;;;5083333;28;20135;-58
2021/12/29 04:57:59;;;;;;;2.63;1.10;;;9.60;99.90;;;;;;5084260;28;20072;-58
2021/12/29 05:00:28;;;;;;;2.13;1.00;;;9.60;99.90;;;;;;5083715;28;20075;-56
2021/12/29 05:02:56;;;;;;;1.90;1.27;;;9.60;99.90;;;;;;5085632;28;20048;-57
2021/12/29 05:08:25;;;;;;;4.07;1.30;;;9.60;99.90;;;;;;5073912;28;20131;-58
2021/12/29 05:10:54;;;;;;;3.05;1.42;;;9.60;99.90;;;;;;5078878;28;20105;-55
2021/12/29 05:13:20;;;;;;;3.92;1.35;;;9.60;99.90;;;;;;5083659;28;20079;-56
2021/12/29 05:15:47;;;;;;;3.60;1.02;;;9.60;99.90;;;;;;5084650;28;20082;-57
2021/12/29 05:18:14;;;;;;;4.25;1.27;;;9.60;99.90;;;;;;5085517;28;20083;-55
2021/12/29 05:20:41;;;;;;;4.90;1.58;;;9.60;99.90;;;;;;5084164;28;20091;-57
2021/12/29 05:23:08;;;;;;;6.85;1.67;;;9.60;99.90;;;;;;5085177;28;20129;-54
2021/12/29 05:25:35;;;;;;;4.88;1.83;;;9.60;99.90;;;;;;5088450;28;20082;-58
2021/12/29 05:28:02;;;;;;;5.05;1.90;;;9.60;99.90;;;;;;5087291;28;20047;-57
2021/12/29 05:30:29;;;;;;;3.72;1.90;;;9.60;99.90;;;;;;5086964;28;20047;-56
2021/12/29 05:32:56;;;;;;;4.75;1.60;;;9.70;99.90;;;;;;5088940;28;20113;-58
2021/12/29 05:35:26;;;;;;;5.47;1.50;;;9.70;99.90;;;;;;5088620;28;20130;-57
2021/12/29 05:37:53;;;;;;;3.35;1.58;;;9.70;99.90;;;;;;5088584;28;20133;-56
2021/12/29 05:40:20;;;;;;;3.92;1.50;;;9.70;99.90;;;;;;5087837;28;20039;-54
2021/12/29 05:42:47;;;;;;;4.65;1.50;;;9.70;99.90;;;;;;5087782;28;20411;-58
2021/12/29 05:45:14;;;;;;;2.88;1.48;;;9.70;99.90;;;;;;5087227;28;20125;-57
2021/12/29 05:47:41;;;;;;;4.78;1.98;;;9.70;99.90;;;;;;5065147;28;20053;-56
2021/12/29 05:50:10;;;;;;;7.72;1.67;;;9.70;99.90;;;;;;5077177;28;20151;-57
2021/12/29 05:52:36;;;;;;;3.40;1.38;;;9.70;99.90;;;;;;5086464;28;20138;-57
2021/12/29 05:55:04;;;;;;;2.53;1.25;;;9.70;99.90;;;;;;5086097;28;20108;-58
2021/12/29 05:57:31;;;;;;;3.05;1.05;;;9.70;99.90;;;;;;5076624;28;20416;-56
2021/12/29 05:59:58;;;;;;;4.55;2.30;;;9.70;99.90;;;;;;5084617;28;20466;-58
2021/12/29 06:02:24;;;;;;;3.97;1.42;;;9.80;99.90;;;;;;5083179;28;20091;-58
2021/12/29 06:04:51;;;;;;;4.70;1.42;;;9.70;99.90;;;;;;5068309;28;20482;-59
2021/12/29 06:07:18;;;;;;;3.05;1.50;;;9.70;99.90;;;;;;5083288;28;20048;-58
2021/12/29 06:09:45;;;;;;;4.53;1.70;;;9.70;99.90;;;;;;5081803;28;20136;-57
2021/12/29 06:12:11;;;;;;;4.50;1.75;;;9.70;99.90;;;;;;5080939;28;20239;-57
2021/12/29 06:14:38;;;;;;;2.63;1.58;;;9.80;99.90;;;;;;5080628;28;20090;-56
2021/12/29 06:17:05;;;;;;;4.68;1.65;;;9.70;99.90;;;;;;5081669;28;20424;-58
2021/12/29 06:19:33;;;;;;;3.35;1.30;;;9.70;99.90;;;;;;5082373;28;20048;-57
2021/12/29 06:22:00;;;;;;;2.50;1.20;;;9.70;99.90;;;;;;5081655;28;20059;-54
2021/12/29 06:24:27;;;;;;;2.50;1.13;;;9.70;99.90;;;;;;5082118;28;20051;-57
2021/12/29 06:26:54;;;;;;;2.25;1.17;;;9.70;99.90;;;;;;5069763;28;20527;-54
2021/12/29 06:29:20;;;;;;;4.28;1.40;;;9.70;99.90;;;;;;5079478;28;20954;-57
2021/12/29 06:31:48;;;;;;;2.70;1.20;;;9.70;99.90;;;;;;5081488;28;20067;-57
2021/12/29 06:34:15;;;;;;;1.63;0.80;;;9.70;99.90;;;;;;5080912;28;20134;-55
2021/12/29 06:36:42;;;;;;;1.23;1.10;;;9.70;99.90;;;;;;5081169;28;20256;-56
2021/12/29 06:39:09;;;;;;;2.08;0.77;;;9.70;99.90;;;;;;5083978;28;20108;-55
2021/12/29 06:41:35;;;;;;;1.38;0.90;;;9.70;99.90;;;;;;5083324;28;20130;-56
2021/12/29 06:44:03;;;;;;;1.83;0.93;;;9.70;99.90;;;;;;5083365;28;20075;-54
2021/12/29 06:46:30;;;;;;;2.42;1.17;;;9.70;99.90;;;;;;5082922;28;20140;-54
2021/12/29 06:48:56;;;;;;;2.05;0.80;;;9.70;99.90;;;;;;5081858;28;20562;-56
2021/12/29 06:51:23;;;;;;;1.30;0.80;;;9.70;99.90;;;;;;5081934;28;20416;-57
2021/12/29 06:53:50;;;;;;;1.88;0.65;;;9.70;99.90;;;;;;5084479;28;20119;-56
2021/12/29 06:56:16;;;;;;;1.30;0.70;;;9.70;99.90;;;;;;5083525;28;20131;-58
2021/12/29 06:58:43;;;;;;;1.80;0.85;;;9.70;99.90;;;;;;5083188;28;20499;-53
2021/12/29 07:01:11;;;;;;;0.82;0.70;;;9.70;99.90;;;;;;5082683;28;20179;-57
2021/12/29 07:03:38;;;;;;;1.55;0.80;;;9.70;99.90;;;;;;5080903;28;20051;-56
2021/12/29 07:06:05;;;;;;;1.95;0.60;;;9.70;99.90;;;;;;5081703;28;20127;-56
2021/12/29 07:08:32;;;;;;;2.40;1.42;;;9.70;99.90;;;;;;5084364;28;20155;-57
2021/12/29 07:10:59;;;;;;;0.90;0.70;;;9.70;99.90;;;;;;5084399;28;20071;-57
2021/12/29 07:13:26;;;;;;;1.45;0.70;;;9.70;99.90;;;;;;5083216;28;20452;-57
2021/12/29 07:15:53;;;;;;;0.88;0.70;;;9.70;99.90;;;;;;5084210;28;20071;-52
2021/12/29 07:18:20;;;;;;;1.50;0.80;;;9.80;99.90;;;;;;5083118;28;20477;-57
2021/12/29 07:20:47;;;;;;;1.90;0.82;;;9.80;99.90;;;;;;5083733;28;20078;-57
2021/12/29 07:23:14;;;;;;;2.03;1.40;;;9.80;99.90;;;;;;5083192;28;20495;-57
2021/12/29 07:25:41;;;;;;;1.65;0.80;;;9.80;99.90;;;;;;5084208;28;20099;-57
2021/12/29 07:28:07;;;;;;;1.73;0.70;;;9.80;99.90;;;;;;5083843;28;20505;-58
2021/12/29 07:30:34;;;;;;;1.65;0.80;;;9.80;99.90;;;;;;5082162;28;20090;-57
2021/12/29 07:33:01;;;;;;;0.88;0.65;;;9.80;99.90;;;;;;5084054;28;20087;-53
2021/12/29 07:35:28;;;;;;;1.73;0.68;;;9.80;99.90;;;;;;5083608;28;20052;-56
2021/12/29 07:37:54;;;;;;;2.05;0.80;;;9.80;99.90;;;;;;5080600;28;20803;-56
2021/12/29 07:40:21;;;;;;;1.25;0.80;;;9.90;99.90;;;;;;5079847;28;20123;-57
2021/12/29 07:42:48;;;;;;;2.20;0.80;;;9.90;99.90;;;;;;5082565;28;20131;-57
2021/12/29 07:45:15;;;;;;;1.15;0.63;;;9.90;99.90;;;;;;5082849;28;20677;-58
2021/12/29 07:47:47;;;;;;;1.08;0.70;;;9.90;99.90;;;;;;5082485;28;20104;-56
2021/12/29 07:50:15;;;;;;;2.33;0.75;;;9.90;99.90;;;;;;5083416;28;20091;-57
2021/12/29 07:52:56;;;;;;;2.25;0.77;;;9.90;99.90;;;;;;5080903;28;20078;-55
2021/12/29 07:55:23;;;;;;;1.48;0.77;;;9.90;99.90;;;;;;5082195;28;20048;-54
2021/12/29 07:57:49;;;;;;;1.40;0.68;;;9.90;99.90;;;;;;5082283;28;20086;-57
2021/12/29 08:00:16;;;;;;;1.23;0.68;;;9.90;99.90;;;;;;5080590;28;20127;-57
2021/12/29 08:02:44;;;;;;;0.75;0.60;;;9.90;99.90;;;;;;5078345;28;20112;-56
2021/12/29 08:05:12;;;;;;;0.98;0.60;;;9.90;99.90;;;;;;5079716;28;20735;-57
2021/12/29 08:07:47;;;;;;;0.80;0.70;;;9.90;99.90;;;;;;5079165;28;20524;-56
2021/12/29 08:10:14;;;;;;;1.10;0.50;;;9.90;99.90;;;;;;5082246;28;20452;-55
2021/12/29 08:12:41;;;;;;;1.95;0.70;;;10.00;99.90;;;;;;5080902;28;20043;-55
2021/12/29 08:15:12;;;;;;;1.15;0.50;;;10.00;99.90;;;;;;5082033;28;20119;-56
2021/12/29 08:17:39;;;;;;;0.60;0.50;;;10.00;99.90;;;;;;5081818;28;20585;-56
2021/12/29 08:20:07;;;;;;;1.33;1.20;;;10.10;99.90;;;;;;5083091;28;20056;-57
2021/12/29 08:22:34;;;;;;;1.48;0.60;;;10.10;99.90;;;;;;5081965;28;20758;-57
2021/12/29 08:25:00;;;;;;;0.70;0.70;;;10.10;99.90;;;;;;5082759;28;20056;-54
2021/12/29 08:27:27;;;;;;;0.40;0.40;;;10.20;99.90;;;;;;5081722;28;20499;-56
2021/12/29 08:29:54;;;;;;;0.88;0.65;;;10.20;99.90;;;;;;5075940;28;20087;-57
2021/12/29 08:32:21;;;;;;;0.45;0.40;;;10.20;99.90;;;;;;5080613;28;20702;-55
2021/12/29 08:34:47;;;;;;;0.75;0.70;;;10.20;99.90;;;;;;5082542;28;20703;-54
2021/12/29 08:37:16;;;;;;;1.92;1.20;;;10.20;99.90;;;;;;5081405;28;20070;-58
2021/12/29 08:39:42;;;;;;;1.00;0.90;;;10.20;99.90;;;;;;5080291;28;20568;-56
2021/12/29 08:42:10;;;;;;;1.15;0.85;;;10.20;99.90;;;;;;5078479;28;20076;-57
2021/12/29 08:44:42;;;;;;;0.77;0.73;;;10.30;99.90;;;;;;5073583;28;20044;-57
2021/12/29 08:47:09;;;;;;;0.85;0.73;;;10.30;99.90;;;;;;5076190;28;20622;-57
2021/12/29 08:49:35;;;;;;;0.80;0.60;;;10.30;99.90;;;;;;5076407;28;20097;-58
2021/12/29 08:52:03;;;;;;;0.60;0.52;;;10.40;99.90;;;;;;5074734;28;20128;-58
2021/12/29 08:54:30;;;;;;;1.00;0.73;;;10.40;99.90;;;;;;5076523;28;20079;-56
2021/12/29 08:56:56;;;;;;;0.82;0.70;;;10.40;99.90;;;;;;5073821;28;20158;-56
2021/12/29 08:59:23;;;;;;;0.70;0.60;;;10.50;99.90;;;;;;5073891;28;20052;-55
2021/12/29 09:01:50;;;;;;;0.82;0.80;;;10.50;99.90;;;;;;5078347;28;20064;-58
2021/12/29 09:04:17;;;;;;;1.00;0.77;;;10.60;99.90;;;;;;5078892;28;20044;-54
2021/12/29 09:06:44;;;;;;;0.90;0.90;;;10.60;99.90;;;;;;5080295;28;20126;-55
2021/12/29 09:09:11;;;;;;;0.70;0.70;;;10.70;99.90;;;;;;5079623;28;20873;-57
2021/12/29 09:11:39;;;;;;;0.90;0.60;;;10.70;99.90;;;;;;5079415;28;20710;-54
2021/12/29 09:14:06;;;;;;;0.60;0.60;;;10.80;99.90;;;;;;5078931;28;20083;-57
2021/12/29 09:16:33;;;;;;;0.65;0.52;;;10.80;99.90;;;;;;5074133;28;20098;-56
2021/12/29 09:19:00;;;;;;;1.20;0.70;;;10.80;99.90;;;;;;5079645;28;20059;-59
2021/12/29 09:21:28;;;;;;;0.60;0.60;;;10.90;99.90;;;;;;5080153;28;20577;-57
2021/12/29 09:23:55;;;;;;;0.68;0.68;;;10.90;99.90;;;;;;5077354;28;20084;-57
2021/12/29 09:26:22;;;;;;;0.80;0.60;;;10.90;99.90;;;;;;5077458;28;20052;-54
2021/12/29 09:28:49;;;;;;;0.68;0.68;;;10.90;99.90;;;;;;5077708;28;20501;-57
2021/12/29 09:31:16;;;;;;;0.77;0.75;;;11.00;99.90;;;;;;5077540;28;20251;-56
2021/12/29 09:33:43;;;;;;;0.95;0.85;;;11.00;99.90;;;;;;5079488;28;20097;-58
2021/12/29 09:36:10;;;;;;;1.27;0.95;;;11.00;99.90;;;;;;5074929;28;20135;-56
2021/12/29 09:38:39;;;;;;;0.90;0.90;;;11.00;99.90;;;;;;5078830;28;20048;-57
2021/12/29 09:41:08;;;;;;;0.98;0.90;;;11.00;99.90;;;;;;5078824;28;20527;-57
2021/12/29 09:43:35;;;;;;;1.10;0.68;;;11.10;99.90;;;;;;5055227;28;20056;-55
2021/12/29 09:46:03;;;;;;;0.93;0.73;;;11.10;99.90;;;;;;5077079;28;20142;-59
2021/12/29 09:48:30;;;;;;;0.88;0.70;;;11.10;99.90;;;;;;5078453;28;20131;-56
2021/12/29 09:50:57;;;;;;;0.93;0.70;;;11.10;99.90;;;;;;5078438;28;20044;-57
2021/12/29 09:53:24;;;;;;;0.63;0.60;;;11.10;99.90;;;;;;5077966;28;20076;-56
2021/12/29 09:55:51;;;;;;;0.60;0.60;;;11.20;99.90;;;;;;5078368;28;20043;-56
2021/12/29 09:58:18;;;;;;;0.50;0.50;;;11.20;99.90;;;;;;5076815;28;20044;-53
2021/12/29 10:00:50;;;;;;;0.50;0.50;;;11.20;99.90;;;;;;5075307;28;20098;-58
2021/12/29 10:03:18;;;;;;;0.40;0.40;;;11.30;99.90;;;;;;5077663;28;20044;-56
2021/12/29 10:05:47;;;;;;;0.85;0.65;;;11.30;99.90;;;;;;5077802;28;20609;-57
2021/12/29 10:08:19;;;;;;;0.70;0.50;;;11.40;99.90;;;;;;5075581;28;20128;-56
2021/12/29 10:10:51;;;;;;;0.43;0.43;;;11.40;99.90;;;;;;5076899;28;20153;-58
2021/12/29 10:13:18;;;;;;;0.55;0.55;;;11.50;99.90;;;;;;5076066;28;20124;-54
2021/12/29 10:15:47;;;;;;;0.73;0.60;;;11.60;99.90;;;;;;5076855;28;20052;-56
2021/12/29 10:18:34;;;;;;;0.77;0.60;;;11.70;99.90;;;;;;5078237;28;20810;-57
2021/12/29 10:21:04;;;;;;;0.50;0.50;;;11.70;99.90;;;;;;5077086;28;20520;-57
2021/12/29 10:23:33;;;;;;;0.50;0.50;;;11.80;99.90;;;;;;5077540;28;20048;-58
2021/12/29 10:26:17;;;;;;;0.70;0.70;;;11.90;99.90;;;;;;5077259;28;20159;-58
2021/12/29 10:28:47;;;;;;;0.50;0.50;;;12.00;99.90;;;;;;5077213;28;20072;-58
2021/12/29 10:31:16;;;;;;;0.57;0.57;;;12.00;99.90;;;;;;5075443;28;20071;-59
2021/12/29 10:33:44;;;;;;;0.57;0.57;;;12.10;99.90;;;;;;5078675;28;20048;-59
2021/12/29 10:36:19;;;;;;;0.50;0.50;;;12.10;99.90;;;;;;5075781;28;20052;-59
2021/12/29 10:38:54;;;;;;;0.40;0.40;;;12.20;99.90;;;;;;5077666;28;20511;-58
2021/12/29 10:41:27;;;;;;;0.57;0.50;;;12.30;99.90;;;;;;5078079;28;20135;-58
2021/12/29 10:44:04;;;;;;;0.68;0.52;;;12.40;99.90;;;;;;5075965;28;20058;-58
2021/12/29 10:46:33;;;;;;;0.73;0.60;;;12.40;99.90;;;;;;5076746;28;20098;-57
2021/12/29 10:49:06;;;;;;;0.50;0.50;;;12.50;99.90;;;;;;5076929;28;20554;-57
2021/12/29 10:51:37;;;;;;;0.55;0.50;;;12.60;99.90;;;;;;5078145;28;20130;-58
2021/12/29 10:54:06;;;;;;;0.40;0.40;;;12.70;99.90;;;;;;5077394;28;20163;-58
2021/12/29 10:56:33;;;;;;;0.73;0.57;;;12.80;99.90;;;;;;5077971;28;20123;-57
2021/12/29 10:59:18;;;;;;;0.35;0.35;;;12.90;99.90;;;;;;5075711;28;20159;-58
2021/12/29 11:01:46;;;;;;;0.47;0.47;;;13.00;99.90;;;;;;5074577;28;20067;-56
2021/12/29 11:04:14;;;;;;;0.43;0.43;;;13.10;99.90;;;;;;5074510;28;20048;-57
2021/12/29 11:06:43;;;;;;;0.60;0.60;;;13.10;99.90;;;;;;5075900;28;20078;-56
2021/12/29 11:09:11;;;;;;;1.20;0.50;;;13.20;99.90;;;;;;5078391;28;20376;-57
2021/12/29 11:11:40;;;;;;;0.60;0.60;;;13.30;99.90;;;;;;5077187;28;20097;-55
2021/12/29 11:14:17;;;;;;;0.80;0.70;;;13.40;99.90;;;;;;5076650;28;20155;-57
2021/12/29 11:16:47;;;;;;;0.60;0.60;;;13.50;99.90;;;;;;5078191;28;20121;-57
2021/12/29 11:19:17;;;;;;;0.55;0.55;;;13.50;99.90;;;;;;5076182;28;20560;-57
2021/12/29 11:21:44;;;;;;;2.00;0.70;;;13.60;99.90;;;;;;5075133;28;20483;-57
2021/12/29 11:24:23;;;;;;;0.52;0.52;;;13.60;99.90;;;;;;5076115;28;20150;-57
2021/12/29 11:26:50;;;;;;;0.57;0.57;;;13.70;99.90;;;;;;5071986;28;20098;-58
2021/12/29 11:29:20;;;;;;;0.60;0.60;;;13.80;99.90;;;;;;5075042;28;20123;-56
2021/12/29 11:32:00;;;;;;;0.50;0.50;;;13.80;99.90;;;;;;5076442;28;20048;-58
2021/12/29 11:34:30;;;;;;;1.00;0.60;;;13.90;99.90;;;;;;5076519;28;20140;-57
2021/12/29 11:37:12;;;;;;;1.10;0.60;;;13.90;99.90;;;;;;5076301;28;20087;-58
2021/12/29 11:39:40;;;;;;;0.60;0.60;;;14.00;99.90;;;;;;5075898;28;20143;-57
2021/12/29 11:42:07;;;;;;;0.68;0.60;;;14.00;99.90;;;;;;5073397;28;20091;-57
2021/12/29 11:44:35;;;;;;;2.15;0.80;;;14.00;99.90;;;;;;5073476;28;20814;-56
2021/12/29 11:47:02;;;;;;;1.00;0.70;;;14.10;99.90;;;;;;5076113;28;20143;-58
2021/12/29 11:49:29;;;;;;;1.48;0.70;;;14.10;99.90;;;;;;5076727;28;20130;-57
2021/12/29 11:52:17;;;;;;;1.85;0.90;;;14.20;99.90;;;;;;5076591;28;20164;-57
2021/12/29 11:55:08;;;;;;;1.05;0.75;;;14.20;99.90;;;;;;5059340;28;20501;-58
2021/12/29 11:57:35;;;;;;;1.35;0.70;;;14.30;99.90;;;;;;5059619;28;20147;-57
2021/12/29 12:00:12;;;;;;;1.15;0.70;;;14.30;99.90;;;;;;5075650;28;20188;-54
2021/12/29 12:02:39;;;;;;;1.52;0.90;;;14.40;99.90;;;;;;5076686;28;20052;-56
2021/12/29 12:05:08;;;;;;;1.45;0.90;;;14.50;99.90;;;;;;5076530;28;20587;-57
2021/12/29 12:07:36;;;;;;;0.98;0.70;;;14.50;99.90;;;;;;5075559;28;20640;-59
2021/12/29 12:10:08;;;;;;;1.55;1.00;;;14.60;99.90;;;;;;5075042;28;21546;-55
2021/12/29 12:12:38;;;;;;;1.43;0.70;;;14.70;99.90;;;;;;5073487;28;20123;-58
2021/12/29 12:15:10;;;;;;;1.65;0.80;;;14.70;99.90;;;;;;5074170;28;20041;-53
2021/12/29 12:17:37;;;;;;;2.03;1.25;;;14.70;99.90;;;;;;5073638;28;20171;-55
2021/12/29 12:20:09;;;;;;;2.10;1.25;;;14.80;99.90;;;;;;5074738;28;20458;-57
2021/12/29 12:22:47;;;;;;;2.47;1.00;;;14.80;99.90;;;;;;5074054;28;20159;-56
2021/12/29 12:25:17;;;;;;;2.03;1.10;;;14.90;99.90;;;;;;5074098;28;20127;-56
2021/12/29 12:27:45;;;;;;;2.83;1.30;;;15.00;99.90;;;;;;5075129;28;20056;-56
2021/12/29 12:30:20;;;;;;;1.75;1.13;;;15.00;99.90;;;;;;5075185;28;20127;-55
2021/12/29 12:32:47;;;;;;;1.85;0.95;;;15.10;99.90;;;;;;5074870;28;20131;-57
2021/12/29 12:35:31;;;;;;;1.45;0.80;;;15.10;99.90;;;;;;5073032;28;20726;-57
2021/12/29 12:37:58;;;;;;;1.95;0.93;;;15.20;99.90;;;;;;5075981;28;20139;-55
2021/12/29 12:40:30;;;;;;;2.67;1.30;;;15.20;99.90;;;;;;5074034;28;20137;-56
2021/12/29 12:43:00;;;;;;;0.90;0.80;;;15.30;99.90;;;;;;5072442;28;20234;-57
2021/12/29 12:45:33;;;;;;;1.52;0.90;;;15.30;99.90;;;;;;5075338;28;20139;-57
2021/12/29 12:48:02;;;;;;;1.88;0.80;;;15.40;99.90;;;;;;5074730;28;20382;-56
2021/12/29 12:50:29;;;;;;;1.35;0.80;;;15.40;99.90;;;;;;5075524;28;20706;-55
2021/12/29 12:52:56;;;;;;;2.42;1.30;;;15.40;99.90;;;;;;5069735;28;20127;-54
2021/12/29 12:55:23;;;;;;;1.85;1.08;;;15.40;99.90;;;;;;5054418;28;20135;-55
2021/12/29 12:57:50;;;;;;;1.77;0.95;;;15.40;99.90;;;;;;5066218;28;20131;-55
2021/12/29 13:00:17;;;;;;;1.92;0.82;;;15.40;99.90;;;;;;5073680;28;20044;-56
2021/12/29 13:02:48;;;;;;;2.47;1.00;;;15.40;99.90;;;;;;5070941;28;20782;-55
2021/12/29 13:05:23;;;;;;;1.80;0.70;;;15.40;99.90;;;;;;5070687;28;20063;-56
2021/12/29 13:08:23;;;;;;;2.92;0.90;;;15.50;99.90;;;;;;5071827;28;20131;-56